createdAt,value
2022-07-25T00:00:36.841Z,7.18
2022-07-25T00:02:38.261Z,7.45
2022-07-25T00:04:40.422Z,8.00
2022-07-25T00:06:42.171Z,8.10
2022-07-25T00:08:43.479Z,8.07
2022-07-25T00:10:44.918Z,7.90
2022-07-25T00:12:46.388Z,7.88
2022-07-25T00:14:48.168Z,8.23
2022-07-25T00:16:49.467Z,8.32
2022-07-25T00:18:50.834Z,7.80
2022-07-25T00:20:52.323Z,8.27
2022-07-25T00:22:53.607Z,7.07
2022-07-25T00:24:55.082Z,8.02
2022-07-25T00:26:56.426Z,8.38
2022-07-25T00:28:57.806Z,7.85
2022-07-25T00:30:59.311Z,7.65
2022-07-25T00:33:00.710Z,8.32
2022-07-25T00:35:02.043Z,7.00
2022-07-25T00:37:03.325Z,7.63
2022-07-25T00:39:05.222Z,7.50
2022-07-25T00:41:06.526Z,7.45
2022-07-25T00:43:07.870Z,7.30
2022-07-25T00:45:09.406Z,8.02
2022-07-25T00:47:10.716Z,7.78
2022-07-25T00:49:12.099Z,8.23
2022-07-25T00:51:13.528Z,8.10
2022-07-25T00:53:14.959Z,7.90
2022-07-25T00:55:16.591Z,7.55
2022-07-25T00:57:17.915Z,7.93
2022-07-25T00:59:19.217Z,7.88
2022-07-25T01:01:22.448Z,8.05
2022-07-25T01:03:23.851Z,7.50
2022-07-25T01:05:25.433Z,7.45
2022-07-25T01:07:26.866Z,8.30
2022-07-25T01:09:28.433Z,8.15
2022-07-25T01:11:29.790Z,8.23
2022-07-25T01:13:32.523Z,7.70
2022-07-25T01:15:34.162Z,7.40
2022-07-25T01:17:35.484Z,7.88
2022-07-25T01:19:36.795Z,8.55
2022-07-25T01:21:39.317Z,8.00
2022-07-25T01:23:41.180Z,7.15
2022-07-25T01:25:42.722Z,7.38
2022-07-25T01:27:44.184Z,7.65
2022-07-25T01:29:45.499Z,7.85
2022-07-25T01:31:46.910Z,8.68
2022-07-25T01:33:48.206Z,7.80
2022-07-25T01:35:49.914Z,7.85
2022-07-25T01:37:51.218Z,7.60
2022-07-25T01:39:52.532Z,7.72
2022-07-25T01:41:53.822Z,7.72
2022-07-25T01:43:55.192Z,7.57
2022-07-25T01:45:56.615Z,7.35
2022-07-25T01:47:58.861Z,8.02
2022-07-25T01:50:00.192Z,5.63
2022-07-25T01:52:01.515Z,7.15
2022-07-25T01:54:03.126Z,8.35
2022-07-25T01:56:06.437Z,7.70
2022-07-25T01:58:10.212Z,7.53
2022-07-25T02:00:13.354Z,7.30
2022-07-25T02:02:14.898Z,8.15
2022-07-25T02:04:16.304Z,8.18
2022-07-25T02:06:17.786Z,7.70
2022-07-25T02:08:19.112Z,7.75
2022-07-25T02:10:20.646Z,8.07
2022-07-25T02:12:21.949Z,7.97
2022-07-25T02:14:23.410Z,7.65
2022-07-25T02:16:29.142Z,7.72
2022-07-25T02:18:30.795Z,7.65
2022-07-25T02:20:32.128Z,7.65
2022-07-25T02:22:33.604Z,7.40
2022-07-25T02:24:36.997Z,7.72
2022-07-25T02:26:38.291Z,7.90
2022-07-25T02:28:40.351Z,8.02
2022-07-25T02:30:41.671Z,8.27
2022-07-25T02:32:43.033Z,8.30
2022-07-25T02:34:44.346Z,8.45
2022-07-25T02:36:45.846Z,8.30
2022-07-25T02:38:47.194Z,8.43
2022-07-25T02:40:49.415Z,8.98
2022-07-25T02:42:50.722Z,8.18
2022-07-25T02:44:52.184Z,7.65
2022-07-25T02:46:53.491Z,8.25
2022-07-25T02:48:54.928Z,7.78
2022-07-25T02:50:56.304Z,8.35
2022-07-25T02:52:57.617Z,7.95
2022-07-25T02:54:59.172Z,8.13
2022-07-25T02:57:00.499Z,7.93
2022-07-25T02:59:01.804Z,7.68
2022-07-25T03:01:03.209Z,8.57
2022-07-25T03:03:04.549Z,8.30
2022-07-25T03:05:09.683Z,8.25
2022-07-25T03:07:11.003Z,8.60
2022-07-25T03:09:12.566Z,8.65
2022-07-25T03:11:14.124Z,8.35
2022-07-25T03:13:15.426Z,8.35
2022-07-25T03:15:16.787Z,8.07
2022-07-25T03:17:18.092Z,8.65
2022-07-25T03:19:19.416Z,8.35
2022-07-25T03:21:21.019Z,9.57
2022-07-25T03:23:22.329Z,8.90
2022-07-25T03:25:23.739Z,9.18
2022-07-25T03:27:28.149Z,8.52
2022-07-25T03:29:29.652Z,9.00
2022-07-25T03:31:31.070Z,9.55
2022-07-25T03:33:32.626Z,9.02
2022-07-25T03:35:35.267Z,9.07
2022-07-25T03:37:36.700Z,9.45
2022-07-25T03:39:37.998Z,8.75
2022-07-25T03:41:39.274Z,8.57
2022-07-25T03:43:40.570Z,7.70
2022-07-25T03:45:42.057Z,7.88
2022-07-25T03:47:43.635Z,8.93
2022-07-25T03:49:44.950Z,8.55
2022-07-25T03:51:46.442Z,7.82
2022-07-25T03:54:03.494Z,8.40
2022-07-25T03:56:05.211Z,8.55
2022-07-25T03:58:07.195Z,8.82
2022-07-25T04:00:09.513Z,8.75
2022-07-25T04:02:11.312Z,8.93
2022-07-25T04:04:12.893Z,7.88
2022-07-25T04:06:14.320Z,8.77
2022-07-25T04:08:15.732Z,8.32
2022-07-25T04:10:17.031Z,8.73
2022-07-25T04:12:18.420Z,8.75
2022-07-25T04:14:19.913Z,8.68
2022-07-25T04:16:22.384Z,8.70
2022-07-25T04:18:25.212Z,9.30
2022-07-25T04:20:30.273Z,10.20
2022-07-25T04:22:31.652Z,8.15
2022-07-25T04:24:33.005Z,8.40
2022-07-25T04:26:34.365Z,7.65
2022-07-25T04:28:35.647Z,9.18
2022-07-25T04:30:37.409Z,9.02
2022-07-25T04:32:38.725Z,8.73
2022-07-25T04:34:40.270Z,8.63
2022-07-25T04:36:42.170Z,8.10
2022-07-25T04:38:44.028Z,8.65
2022-07-25T04:40:46.223Z,8.88
2022-07-25T04:42:47.722Z,9.02
2022-07-25T04:44:49.066Z,9.25
2022-07-25T04:46:50.505Z,9.02
2022-07-25T04:48:52.101Z,8.75
2022-07-25T04:50:53.552Z,10.20
2022-07-25T04:52:55.057Z,8.77
2022-07-25T04:54:56.392Z,9.93
2022-07-25T04:56:57.766Z,8.90
2022-07-25T04:59:06.871Z,9.25
2022-07-25T05:01:08.544Z,9.40
2022-07-25T05:03:10.166Z,8.70
2022-07-25T05:05:18.385Z,8.98
2022-07-25T05:07:23.135Z,8.65
2022-07-25T05:09:24.560Z,9.10
2022-07-25T05:11:25.872Z,8.45
2022-07-25T05:13:27.268Z,8.65
2022-07-25T05:15:28.590Z,8.15
2022-07-25T05:17:29.960Z,7.97
2022-07-25T05:19:31.312Z,8.63
2022-07-25T05:21:32.679Z,8.60
2022-07-25T05:23:34.018Z,8.65
2022-07-25T05:25:35.346Z,8.30
2022-07-25T05:27:37.315Z,8.82
2022-07-25T05:29:38.662Z,9.02
2022-07-25T05:31:40.189Z,9.15
2022-07-25T05:33:42.540Z,8.70
2022-07-25T05:35:44.108Z,7.72
2022-07-25T05:37:45.621Z,8.63
2022-07-25T05:39:46.971Z,8.95
2022-07-25T05:41:48.358Z,9.20
2022-07-25T05:43:49.913Z,9.68
2022-07-25T05:45:51.519Z,8.85
2022-07-25T05:47:52.912Z,8.95
2022-07-25T05:49:54.749Z,9.40
2022-07-25T05:51:56.167Z,9.20
2022-07-25T05:53:57.538Z,9.60
2022-07-25T05:55:59.231Z,9.65
2022-07-25T05:58:02.426Z,9.43
2022-07-25T06:00:05.507Z,8.82
2022-07-25T06:02:07.678Z,9.15
2022-07-25T06:04:09.560Z,9.10
2022-07-25T06:06:11.323Z,9.43
2022-07-25T06:08:13.506Z,9.25
2022-07-25T06:10:14.880Z,9.60
2022-07-25T06:12:16.202Z,9.27
2022-07-25T06:14:17.539Z,8.95
2022-07-25T06:16:19.518Z,9.45
2022-07-25T06:18:20.844Z,9.45
2022-07-25T06:20:22.180Z,9.27
2022-07-25T06:22:23.544Z,9.27
2022-07-25T06:24:24.884Z,9.32
2022-07-25T06:26:26.421Z,9.00
2022-07-25T06:28:28.048Z,9.23
2022-07-25T06:30:29.844Z,9.05
2022-07-25T06:32:31.162Z,8.98
2022-07-25T06:34:32.535Z,9.80
2022-07-25T06:36:34.112Z,8.77
2022-07-25T06:38:35.417Z,9.02
2022-07-25T06:40:36.708Z,8.82
2022-07-25T06:42:42.043Z,9.45
2022-07-25T06:44:43.371Z,9.93
2022-07-25T06:46:44.894Z,8.90
2022-07-25T06:48:46.708Z,8.65
2022-07-25T06:50:48.058Z,9.60
2022-07-25T06:52:49.708Z,9.02
2022-07-25T06:54:51.028Z,8.95
2022-07-25T06:56:52.355Z,9.63
2022-07-25T06:58:54.596Z,9.40
2022-07-25T07:00:55.993Z,9.20
2022-07-25T07:02:59.534Z,10.13
2022-07-25T07:05:00.958Z,9.32
2022-07-25T07:07:02.424Z,9.63
2022-07-25T07:09:03.959Z,9.88
2022-07-25T07:11:06.224Z,9.18
2022-07-25T07:13:09.416Z,9.63
2022-07-25T07:15:11.242Z,9.48
2022-07-25T07:17:12.572Z,9.77
2022-07-25T07:19:14.579Z,9.98
2022-07-25T07:21:16.210Z,9.45
2022-07-25T07:23:22.651Z,9.20
2022-07-25T07:25:28.262Z,9.38
2022-07-25T07:27:29.932Z,8.75
2022-07-25T07:29:31.314Z,8.95
2022-07-25T07:31:32.700Z,9.23
2022-07-25T07:33:34.516Z,9.52
2022-07-25T07:35:35.992Z,9.40
2022-07-25T07:37:43.207Z,9.63
2022-07-25T07:39:45.078Z,9.90
2022-07-25T07:41:46.505Z,9.30
2022-07-25T07:43:47.921Z,9.02
2022-07-25T07:45:49.290Z,9.82
2022-07-25T07:47:51.531Z,9.55
2022-07-25T07:49:52.874Z,9.10
2022-07-25T07:51:54.207Z,10.15
2022-07-25T07:54:14.195Z,9.98
2022-07-25T07:56:16.057Z,10.13
2022-07-25T07:58:18.889Z,10.23
2022-07-25T08:00:20.967Z,9.60
2022-07-25T08:02:22.848Z,9.73
2022-07-25T08:04:24.585Z,9.48
2022-07-25T08:06:27.761Z,10.18
2022-07-25T08:08:31.415Z,9.35
2022-07-25T08:10:36.361Z,10.60
2022-07-25T08:12:42.619Z,9.77
2022-07-25T08:14:43.932Z,9.63
2022-07-25T08:16:45.268Z,10.25
2022-07-25T08:18:46.850Z,9.68
2022-07-25T08:20:48.685Z,10.32
2022-07-25T08:22:56.406Z,9.35
2022-07-25T08:24:58.133Z,9.68
2022-07-25T08:27:01.838Z,10.98
2022-07-25T08:29:18.794Z,9.77
2022-07-25T08:31:21.477Z,9.25
2022-07-25T08:33:22.897Z,8.77
2022-07-25T08:35:25.776Z,9.70
2022-07-25T08:37:27.120Z,9.75
2022-07-25T08:39:28.698Z,10.07
2022-07-25T08:41:30.374Z,8.70
2022-07-25T08:43:33.211Z,9.45
2022-07-25T08:45:34.919Z,8.93
2022-07-25T08:47:37.010Z,9.45
2022-07-25T08:49:38.652Z,10.07
2022-07-25T08:51:40.728Z,9.82
2022-07-25T08:53:42.449Z,9.65
2022-07-25T08:55:50.012Z,9.45
2022-07-25T08:57:52.695Z,9.73
2022-07-25T08:59:56.761Z,9.73
2022-07-25T09:02:00.575Z,8.70
2022-07-25T09:04:03.381Z,8.70
2022-07-25T09:06:20.852Z,7.60
2022-07-25T09:08:22.238Z,8.15
2022-07-25T09:10:24.824Z,6.63
2022-07-25T09:12:28.014Z,7.53
2022-07-25T09:14:29.898Z,7.88
2022-07-25T09:16:32.134Z,8.50
2022-07-25T09:18:36.276Z,8.68
2022-07-25T09:20:43.357Z,8.77
2022-07-25T09:22:45.174Z,9.13
2022-07-25T09:24:46.875Z,9.35
2022-07-25T09:26:48.258Z,8.27
2022-07-25T09:28:51.281Z,8.50
2022-07-25T09:30:56.496Z,8.90
2022-07-25T09:33:01.824Z,9.50
2022-07-25T09:35:03.392Z,8.57
2022-07-25T09:37:07.061Z,8.75
2022-07-25T09:39:08.442Z,7.97
2022-07-25T09:41:09.817Z,8.48
2022-07-25T09:43:11.341Z,8.73
2022-07-25T09:45:13.953Z,8.65
2022-07-25T09:47:16.318Z,8.25
2022-07-25T09:49:17.716Z,8.95
2022-07-25T09:51:19.226Z,8.35
2022-07-25T09:53:21.010Z,8.07
2022-07-25T09:55:22.800Z,8.48
2022-07-25T09:57:25.646Z,8.35
2022-07-25T09:59:27.087Z,7.78
2022-07-25T10:01:35.670Z,7.75
2022-07-25T10:03:37.084Z,8.30
2022-07-25T10:05:44.234Z,7.97
2022-07-25T10:07:47.234Z,8.45
2022-07-25T10:09:49.441Z,7.88
2022-07-25T10:12:03.900Z,7.85
2022-07-25T10:14:12.415Z,8.00
2022-07-25T10:16:14.673Z,7.95
2022-07-25T10:18:19.016Z,7.65
2022-07-25T10:20:27.481Z,8.10
2022-07-25T10:25:07.453Z,7.88
2022-07-25T10:27:09.976Z,7.82
2022-07-25T10:29:12.684Z,7.18
2022-07-25T10:31:15.384Z,7.57
2022-07-25T10:33:21.209Z,7.85
2022-07-25T10:35:22.654Z,7.25
2022-07-25T10:37:27.897Z,7.03
2022-07-25T10:39:37.665Z,7.15
2022-07-25T10:41:39.714Z,7.00
2022-07-25T10:43:48.172Z,6.43
2022-07-25T10:45:54.649Z,7.10
2022-07-25T10:47:56.054Z,6.60
2022-07-25T10:52:20.117Z,6.65
2022-07-25T10:54:22.364Z,7.38
2022-07-25T10:56:24.830Z,6.72
2022-07-25T10:58:26.162Z,6.50
2022-07-25T11:00:27.983Z,6.00
2022-07-25T11:02:29.511Z,6.10
2022-07-25T11:04:31.220Z,6.03
2022-07-25T11:06:32.617Z,5.80
2022-07-25T11:08:35.761Z,5.68
2022-07-25T11:10:37.211Z,5.78
2022-07-25T11:12:38.577Z,6.07
2022-07-25T11:14:43.934Z,5.50
2022-07-25T11:16:46.290Z,5.95
2022-07-25T11:18:49.416Z,5.43
2022-07-25T11:21:01.677Z,5.82
2022-07-25T11:23:05.652Z,5.60
2022-07-25T11:25:11.321Z,6.00
2022-07-25T11:27:19.924Z,5.90
2022-07-25T11:29:23.763Z,6.03
2022-07-25T11:31:26.113Z,6.13
2022-07-25T11:33:27.603Z,5.88
2022-07-25T11:35:30.974Z,5.55
2022-07-25T11:37:33.779Z,5.95
2022-07-25T11:39:36.585Z,5.57
2022-07-25T11:41:39.426Z,5.55
2022-07-25T11:43:47.608Z,6.10
2022-07-25T11:45:59.812Z,5.85
2022-07-25T11:48:07.967Z,5.82
2022-07-25T11:50:14.670Z,4.97
2022-07-25T11:52:22.632Z,5.38
2022-07-25T11:54:24.062Z,6.38
2022-07-25T11:56:43.770Z,5.82
2022-07-25T11:58:58.967Z,5.95
2022-07-25T12:01:00.381Z,5.47
2022-07-25T12:03:08.951Z,5.65
2022-07-25T12:05:11.926Z,5.70
2022-07-25T12:07:14.923Z,5.20
2022-07-25T12:09:22.738Z,5.28
2022-07-25T12:11:24.706Z,4.93
2022-07-25T12:13:27.482Z,5.47
2022-07-25T12:15:31.090Z,5.32
2022-07-25T12:17:32.634Z,5.38
2022-07-25T12:19:34.056Z,4.93
2022-07-25T12:21:35.970Z,4.90
2022-07-25T12:23:38.901Z,4.78
2022-07-25T12:25:41.358Z,4.72
2022-07-25T12:27:43.171Z,5.13
2022-07-25T12:29:44.637Z,5.45
2022-07-25T12:31:45.968Z,4.85
2022-07-25T12:33:49.046Z,5.32
2022-07-25T12:35:51.777Z,5.60
2022-07-25T12:37:53.592Z,5.25
2022-07-25T12:39:55.068Z,5.45
2022-07-25T12:41:56.466Z,4.90
2022-07-25T12:43:58.953Z,5.18
2022-07-25T12:46:00.447Z,5.57
2022-07-25T12:48:01.885Z,5.80
2022-07-25T12:50:03.949Z,5.15
2022-07-25T12:52:05.442Z,5.50
2022-07-25T12:54:07.099Z,5.25
2022-07-25T12:56:08.926Z,5.22
2022-07-25T12:58:10.371Z,5.25
2022-07-25T13:00:13.657Z,4.78
2022-07-25T13:02:15.139Z,5.07
2022-07-25T13:04:16.624Z,5.05
2022-07-25T13:06:20.706Z,5.07
2022-07-25T13:08:22.152Z,5.35
2022-07-25T13:10:23.623Z,5.75
2022-07-25T13:12:25.294Z,5.80
2022-07-25T13:14:26.660Z,5.63
2022-07-25T13:16:28.130Z,5.35
2022-07-25T13:18:30.259Z,5.70
2022-07-25T13:20:31.860Z,5.10
2022-07-25T13:22:33.203Z,5.25
2022-07-25T13:24:34.754Z,5.07
2022-07-25T13:26:36.735Z,5.47
2022-07-25T13:28:38.180Z,5.15
2022-07-25T13:30:40.041Z,5.65
2022-07-25T13:32:41.702Z,5.93
2022-07-25T13:34:46.027Z,5.30
2022-07-25T13:36:47.932Z,5.32
2022-07-25T13:38:52.058Z,4.75
2022-07-25T13:40:58.697Z,4.93
2022-07-25T13:43:00.433Z,4.75
2022-07-25T13:45:01.838Z,5.07
2022-07-25T13:47:03.315Z,4.75
2022-07-25T13:49:05.162Z,5.18
2022-07-25T13:51:09.154Z,5.00
2022-07-25T13:53:10.567Z,5.03
2022-07-25T13:55:11.931Z,4.82
2022-07-25T13:57:13.275Z,4.80
2022-07-25T13:59:20.767Z,4.93
2022-07-25T14:01:23.857Z,5.28
2022-07-25T14:03:25.425Z,5.38
2022-07-25T14:05:26.993Z,4.97
2022-07-25T14:07:28.468Z,4.97
2022-07-25T14:09:29.831Z,5.18
2022-07-25T14:11:31.494Z,5.60
2022-07-25T14:13:33.117Z,5.15
2022-07-25T14:15:34.489Z,4.93
2022-07-25T14:17:36.086Z,4.93
2022-07-25T14:19:37.586Z,4.72
2022-07-25T14:21:38.987Z,5.75
2022-07-25T14:23:40.895Z,5.55
2022-07-25T14:25:42.232Z,5.95
2022-07-25T14:27:45.049Z,5.45
2022-07-25T14:29:46.432Z,5.22
2022-07-25T14:31:47.845Z,5.35
2022-07-25T14:33:49.272Z,4.65
2022-07-25T14:35:51.063Z,5.15
2022-07-25T14:37:52.600Z,5.50
2022-07-25T14:39:54.333Z,5.40
2022-07-25T14:41:55.872Z,5.30
2022-07-25T14:43:57.190Z,5.32
2022-07-25T14:45:58.605Z,5.30
2022-07-25T14:48:00.292Z,5.20
2022-07-25T14:50:01.654Z,4.97
2022-07-25T14:52:03.114Z,5.35
2022-07-25T14:54:04.534Z,5.53
2022-07-25T14:56:06.183Z,5.45
2022-07-25T14:58:07.588Z,4.80
2022-07-25T15:00:09.413Z,5.10
2022-07-25T15:02:11.404Z,5.20
2022-07-25T15:04:13.206Z,5.07
2022-07-25T15:06:17.286Z,4.95
2022-07-25T15:08:18.699Z,5.30
2022-07-25T15:10:20.149Z,5.70
2022-07-25T15:12:21.812Z,5.60
2022-07-25T15:14:23.234Z,5.38
2022-07-25T15:16:25.017Z,5.22
2022-07-25T15:18:26.510Z,5.07
2022-07-25T15:20:27.833Z,5.30
2022-07-25T15:22:29.620Z,5.43
2022-07-25T15:24:44.287Z,5.50
2022-07-25T15:26:52.500Z,4.88
2022-07-25T15:28:54.572Z,4.80
2022-07-25T15:30:55.973Z,5.40
2022-07-25T15:32:57.446Z,5.47
2022-07-25T15:34:59.331Z,5.80
2022-07-25T15:37:01.387Z,5.47
2022-07-25T15:39:05.838Z,5.45
2022-07-25T15:41:10.478Z,5.35
2022-07-25T15:43:11.829Z,5.40
2022-07-25T15:45:32.479Z,4.72
2022-07-25T15:47:34.274Z,5.18
2022-07-25T15:49:37.047Z,5.28
2022-07-25T15:51:38.385Z,4.57
2022-07-25T15:53:39.739Z,4.80
2022-07-25T15:55:41.670Z,4.95
2022-07-25T15:57:43.240Z,4.93
2022-07-25T15:59:44.814Z,4.72
2022-07-25T16:01:46.249Z,4.70
2022-07-25T16:03:47.878Z,4.35
2022-07-25T16:05:49.555Z,4.80
2022-07-25T16:07:51.051Z,4.38
2022-07-25T16:09:52.722Z,3.90
2022-07-25T16:11:54.117Z,4.35
2022-07-25T16:13:55.481Z,4.22
2022-07-25T16:15:56.929Z,4.38
2022-07-25T16:18:02.763Z,4.32
2022-07-25T16:20:06.588Z,3.88
2022-07-25T16:22:07.941Z,4.30
2022-07-25T16:24:10.980Z,4.60
2022-07-25T16:26:12.510Z,4.85
2022-07-25T16:28:17.972Z,4.38
2022-07-25T16:30:20.588Z,4.30
2022-07-25T16:32:21.950Z,4.47
2022-07-25T16:34:28.855Z,4.05
2022-07-25T16:36:31.137Z,4.85
2022-07-25T16:38:32.751Z,4.00
2022-07-25T16:40:34.247Z,4.10
2022-07-25T16:42:35.810Z,4.68
2022-07-25T16:44:37.325Z,4.50
2022-07-25T16:46:38.735Z,4.45
2022-07-25T16:48:40.144Z,4.28
2022-07-25T16:50:41.547Z,4.60
2022-07-25T16:52:42.908Z,4.53
2022-07-25T16:54:44.301Z,4.38
2022-07-25T16:56:48.165Z,4.63
2022-07-25T16:58:52.967Z,4.45
2022-07-25T17:00:54.367Z,4.78
2022-07-25T17:02:55.707Z,4.47
2022-07-25T17:04:57.327Z,4.70
2022-07-25T17:06:58.881Z,4.45
2022-07-25T17:09:00.280Z,4.40
2022-07-25T17:11:02.721Z,4.22
2022-07-25T17:13:04.439Z,4.32
2022-07-25T17:15:06.149Z,4.72
2022-07-25T17:17:07.578Z,4.55
2022-07-25T17:19:09.469Z,4.88
2022-07-25T17:21:13.587Z,4.70
2022-07-25T17:23:15.497Z,4.55
2022-07-25T17:25:16.893Z,4.80
2022-07-25T17:27:18.331Z,4.50
2022-07-25T17:29:19.920Z,5.03
2022-07-25T17:31:22.313Z,5.07
2022-07-25T17:33:23.771Z,4.60
2022-07-25T17:35:25.745Z,4.38
2022-07-25T17:37:27.886Z,4.30
2022-07-25T17:39:30.121Z,4.20
2022-07-25T17:41:31.555Z,4.38
2022-07-25T17:43:33.024Z,4.53
2022-07-25T17:45:34.449Z,4.55
2022-07-25T17:47:35.917Z,4.75
2022-07-25T17:49:40.256Z,4.45
2022-07-25T17:51:41.668Z,4.40
2022-07-25T17:53:43.149Z,4.30
2022-07-25T17:55:44.982Z,4.20
2022-07-25T17:57:46.586Z,4.30
2022-07-25T17:59:48.715Z,4.40
2022-07-25T18:01:50.433Z,4.63
2022-07-25T18:03:51.897Z,4.72
2022-07-25T18:05:53.340Z,4.38
2022-07-25T18:07:54.811Z,4.28
2022-07-25T18:09:56.180Z,4.60
2022-07-25T18:12:00.105Z,4.70
2022-07-25T18:14:01.657Z,4.38
2022-07-25T18:16:05.495Z,4.72
2022-07-25T18:18:10.297Z,4.30
2022-07-25T18:20:13.710Z,4.80
2022-07-25T18:22:15.128Z,4.50
2022-07-25T18:24:16.499Z,4.20
2022-07-25T18:26:18.268Z,4.65
2022-07-25T18:28:20.506Z,4.90
2022-07-25T18:30:25.892Z,4.30
2022-07-25T18:32:30.155Z,4.97
2022-07-25T18:34:31.911Z,4.40
2022-07-25T18:36:33.353Z,4.03
2022-07-25T18:38:35.660Z,4.50
2022-07-25T18:40:37.248Z,4.40
2022-07-25T18:42:39.496Z,4.30
2022-07-25T18:44:40.864Z,4.60
2022-07-25T18:46:43.175Z,4.43
2022-07-25T18:48:45.502Z,4.57
2022-07-25T18:50:46.912Z,4.70
2022-07-25T18:52:48.312Z,4.35
2022-07-25T18:54:50.060Z,5.20
2022-07-25T18:56:51.534Z,4.43
2022-07-25T18:58:52.988Z,5.38
2022-07-25T19:00:55.425Z,4.68
2022-07-25T19:02:56.892Z,4.65
2022-07-25T19:04:58.373Z,4.78
2022-07-25T19:06:59.819Z,4.10
2022-07-25T19:09:01.234Z,4.60
2022-07-25T19:11:02.847Z,5.03
2022-07-25T19:13:04.317Z,5.00
2022-07-25T19:15:06.190Z,5.10
2022-07-25T19:17:07.601Z,5.07
2022-07-25T19:19:09.751Z,4.63
2022-07-25T19:21:11.227Z,4.97
2022-07-25T19:23:12.642Z,4.57
2022-07-25T19:25:14.275Z,4.88
2022-07-25T19:27:15.650Z,4.93
2022-07-25T19:29:17.105Z,5.00
2022-07-25T19:31:18.561Z,4.97
2022-07-25T19:33:19.987Z,5.50
2022-07-25T19:35:26.100Z,4.95
2022-07-25T19:37:30.879Z,4.90
2022-07-25T19:39:32.389Z,4.97
2022-07-25T19:41:33.922Z,4.70
2022-07-25T19:43:35.343Z,4.88
2022-07-25T19:45:39.219Z,4.60
2022-07-25T19:47:40.638Z,5.07
2022-07-25T19:49:42.633Z,4.70
2022-07-25T19:51:46.503Z,5.00
2022-07-25T19:53:47.978Z,5.13
2022-07-25T19:55:49.435Z,4.55
2022-07-25T19:57:51.299Z,4.60
2022-07-25T19:59:52.670Z,4.22
2022-07-25T20:01:55.315Z,4.40
2022-07-25T20:03:56.885Z,4.38
2022-07-25T20:05:58.246Z,4.40
2022-07-25T20:07:59.695Z,4.80
2022-07-25T20:10:01.014Z,4.40
2022-07-25T20:12:03.204Z,4.07
2022-07-25T20:14:05.070Z,4.68
2022-07-25T20:16:06.942Z,4.43
2022-07-25T20:18:08.594Z,4.45
2022-07-25T20:20:10.366Z,4.60
2022-07-25T20:22:12.168Z,4.47
2022-07-25T20:24:18.036Z,4.32
2022-07-25T20:26:22.323Z,4.13
2022-07-25T20:28:23.648Z,3.85
2022-07-25T20:30:25.020Z,3.70
2022-07-25T20:32:26.412Z,3.53
2022-07-25T20:34:27.938Z,3.78
2022-07-25T20:36:29.369Z,3.70
2022-07-25T20:38:32.365Z,3.80
2022-07-25T20:40:33.790Z,3.80
2022-07-25T20:42:36.250Z,3.70
2022-07-25T20:44:37.746Z,3.70
2022-07-25T20:46:39.540Z,3.47
2022-07-25T20:48:41.036Z,3.33
2022-07-25T20:50:43.047Z,3.17
2022-07-25T20:52:44.440Z,2.90
2022-07-25T20:54:45.914Z,2.80
2022-07-25T20:56:47.375Z,3.00
2022-07-25T20:58:48.899Z,2.85
2022-07-25T21:00:50.334Z,3.10
2022-07-25T21:02:52.559Z,3.10
2022-07-25T21:04:54.081Z,2.97
2022-07-25T21:06:56.731Z,2.80
2022-07-25T21:08:58.272Z,3.03
2022-07-25T21:10:59.720Z,2.85
2022-07-25T21:13:01.108Z,2.58
2022-07-25T21:15:02.625Z,2.47
2022-07-25T21:17:04.125Z,2.45
2022-07-25T21:19:06.077Z,2.72
2022-07-25T21:21:12.089Z,2.25
2022-07-25T21:23:14.353Z,2.13
2022-07-25T21:25:15.796Z,2.30
2022-07-25T21:27:17.722Z,2.20
2022-07-25T21:29:19.308Z,2.20
2022-07-25T21:31:21.020Z,2.13
2022-07-25T21:33:22.431Z,2.00
2022-07-25T21:35:23.765Z,2.17
2022-07-25T21:37:25.196Z,2.00
2022-07-25T21:39:26.803Z,1.95
2022-07-25T21:41:28.422Z,1.80
2022-07-25T21:43:29.774Z,1.92
2022-07-25T21:45:31.553Z,2.00
2022-07-25T21:47:33.234Z,1.95
2022-07-25T21:49:53.264Z,2.20
2022-07-25T21:51:56.939Z,2.20
2022-07-25T21:53:59.513Z,2.20
2022-07-25T21:56:00.978Z,2.05
2022-07-25T21:58:02.301Z,2.10
2022-07-25T22:00:06.815Z,1.90
2022-07-25T22:02:08.254Z,2.22
2022-07-25T22:04:09.990Z,2.00
2022-07-25T22:06:11.533Z,1.95
2022-07-25T22:08:12.896Z,2.17
2022-07-25T22:10:15.340Z,2.22
2022-07-25T22:12:16.673Z,2.47
2022-07-25T22:14:17.961Z,2.30
2022-07-25T22:16:19.386Z,1.95
2022-07-25T22:18:20.737Z,2.03
2022-07-25T22:20:23.177Z,2.03
2022-07-25T22:22:24.508Z,2.20
2022-07-25T22:24:26.009Z,2.25
2022-07-25T22:26:27.316Z,1.92
2022-07-25T22:28:28.725Z,2.50
2022-07-25T22:30:30.912Z,2.25
2022-07-25T22:32:32.212Z,2.20
2022-07-25T22:34:33.508Z,2.30
2022-07-25T22:36:34.938Z,2.10
2022-07-25T22:38:36.488Z,1.70
2022-07-25T22:40:37.805Z,1.95
2022-07-25T22:42:39.177Z,1.90
2022-07-25T22:44:40.709Z,2.00
2022-07-25T22:46:42.340Z,2.00
2022-07-25T22:48:43.708Z,2.00
2022-07-25T22:50:45.396Z,2.03
2022-07-25T22:52:49.822Z,1.83
2022-07-25T22:54:51.111Z,1.80
2022-07-25T22:56:52.524Z,1.80
2022-07-25T22:58:54.272Z,1.63
2022-07-25T23:00:55.636Z,1.83
2022-07-25T23:02:56.986Z,1.63
2022-07-25T23:04:58.473Z,1.85
2022-07-25T23:06:59.780Z,1.90
2022-07-25T23:09:01.187Z,1.63
2022-07-25T23:11:03.570Z,1.90
2022-07-25T23:13:05.159Z,1.63
2022-07-25T23:15:07.853Z,1.63
2022-07-25T23:17:18.075Z,1.77
2022-07-25T23:21:20.951Z,2.22
2022-07-25T23:23:22.432Z,1.67
2022-07-25T23:25:23.780Z,1.58
2022-07-25T23:27:25.409Z,1.52
2022-07-25T23:29:26.736Z,1.70
2022-07-25T23:31:28.236Z,1.60
2022-07-25T23:33:29.585Z,1.77
2022-07-25T23:35:31.671Z,1.50
2022-07-25T23:37:33.103Z,1.52
2022-07-25T23:39:34.476Z,1.33
2022-07-25T23:41:35.819Z,1.60
2022-07-25T23:43:52.214Z,1.42
2022-07-25T23:45:59.242Z,1.30
2022-07-25T23:48:02.630Z,1.30
2022-07-25T23:50:05.058Z,1.45
2022-07-25T23:52:06.388Z,1.45
2022-07-25T23:54:07.669Z,1.55
2022-07-25T23:56:09.392Z,1.25
2022-07-25T23:58:10.686Z,1.15
